Time;durP1;ratioP1;P1;durP2;ratioP2;P2;SDS_P1;SDS_P2;PMS_P1;PMS_P2;Temp;Humidity;BMP_temperature;BMP_pressure;BME280_temperature;BME280_humidity;BME280_pressure;Samples;Min_cycle;Max_cycle;Signal;HPM_P1;HPM_P2
2021/05/15 00:00:43;;;;;;;2.30;1.93;;;;;;;16.02;72.81;96281.28;5068043;28;20213;-65
2021/05/15 00:03:08;;;;;;;3.03;2.20;;;;;;;14.84;73.07;96106.16;5050523;28;20192;-65
2021/05/15 00:05:34;;;;;;;2.10;1.90;;;;;;;18.70;73.32;96743.94;5039318;28;20216;-66
2021/05/15 00:08:03;;;;;;;2.20;2.00;;;;;;;19.37;73.39;96856.19;5067620;28;20301;-65
2021/05/15 00:10:28;;;;;;;2.57;2.00;;;;;;;19.18;73.21;96828.44;5050643;28;20195;-65
2021/05/15 00:12:54;;;;;;;1.70;1.60;;;;;;;19.36;73.35;96868.06;5059077;28;20195;-65
2021/05/15 00:15:19;;;;;;;2.60;1.93;;;;;;;18.80;73.33;96776.47;5050262;28;20209;-65
2021/05/15 00:17:45;;;;;;;2.37;1.80;;;;;;;19.36;73.50;96873.16;5065650;28;20241;-65
2021/05/15 00:20:13;;;;;;;1.73;1.63;;;;;;;19.37;73.29;96874.03;5067966;28;20208;-64
2021/05/15 00:22:42;;;;;;;2.50;1.90;;;;;;;17.01;73.29;96471.19;5063064;28;20184;-65
2021/05/15 00:25:08;;;;;;;2.03;1.80;;;;;;;19.36;73.35;96873.16;5034724;28;20208;-65
2021/05/15 00:27:34;;;;;;;2.43;1.90;;;;;;;19.18;73.26;96838.63;5068537;28;20665;-65
2021/05/15 00:29:59;;;;;;;2.13;1.80;;;;;;;19.37;73.41;96871.47;5037530;28;20196;-64
2021/05/15 00:32:24;;;;;;;2.50;1.80;;;;;;;19.37;73.25;96871.47;5066202;28;20191;-65
2021/05/15 00:34:50;;;;;;;2.07;1.80;;;;;;;18.58;73.41;96728.34;5061452;28;20208;-65
2021/05/15 00:37:16;;;;;;;2.87;2.00;;;;;;;19.37;74.26;96869.81;5047256;28;20293;-65
2021/05/15 00:39:41;;;;;;;2.87;1.83;;;;;;;19.36;73.42;96868.06;5067253;28;20677;-64
2021/05/15 00:42:06;;;;;;;2.27;1.77;;;;;;;19.37;73.38;96868.94;5032453;28;20660;-65
2021/05/15 00:47:17;;;;;;;1.70;1.60;;;;;;;18.29;73.32;96708.78;5067704;28;20226;-65
2021/05/15 00:49:43;;;;;;;1.93;1.70;;;;;;;16.88;73.07;96547.78;5050598;28;20734;-64
2021/05/15 00:52:08;;;;;;;2.23;1.73;;;;;;;16.86;73.30;96439.41;5052781;28;20204;-65
2021/05/15 00:54:38;;;;;;;2.07;1.87;;;;;;;19.36;73.41;96865.50;5048189;28;20576;-65
2021/05/15 00:57:04;;;;;;;1.70;1.60;;;;;;;19.36;73.41;96865.50;5038132;28;20196;-67
2021/05/15 00:59:30;;;;;;;1.50;1.40;;;;;;;19.36;73.42;96868.06;5046348;28;20194;-66
2021/05/15 01:01:56;;;;;;;2.10;1.70;;;;;;;18.99;73.38;96804.19;5047004;28;20228;-65
2021/05/15 01:04:21;;;;;;;1.80;1.70;;;;;;;18.18;73.39;96700.84;5066203;28;20216;-65
2021/05/15 01:06:46;;;;;;;2.17;1.80;;;;;;;18.76;73.29;96764.47;5048141;28;20199;-65
2021/05/15 01:09:12;;;;;;;1.90;1.80;;;;;;;18.65;73.50;96744.66;5048642;28;20192;-65
2021/05/15 01:11:37;;;;;;;2.10;1.70;;;;;;;19.35;73.91;96866.34;5055328;28;20192;-65
2021/05/15 01:14:04;;;;;;;1.77;1.67;;;;;;;19.36;73.91;96869.78;5049203;28;20216;-64
2021/05/15 01:16:31;;;;;;;3.17;1.50;;;;;;;19.11;73.85;96826.56;5066317;28;20192;-66
2021/05/15 01:18:57;;;;;;;1.87;1.67;;;;;;;19.16;74.01;96838.59;5048974;28;20653;-65
2021/05/15 01:21:23;;;;;;;1.70;1.60;;;;;;;19.35;74.07;96868.03;5036786;28;20782;-65
2021/05/15 01:23:48;;;;;;;1.60;1.50;;;;;;;19.34;74.08;96866.31;5067675;28;20180;-67
2021/05/15 01:26:18;;;;;;;2.17;1.73;;;;;;;19.35;74.19;96873.13;5065236;28;20684;-65
2021/05/15 01:28:45;;;;;;;1.50;1.40;;;;;;;19.34;74.14;96871.41;5067368;28;20192;-65
2021/05/15 01:31:11;;;;;;;2.97;1.77;;;;;;;17.87;74.03;96621.97;5065185;28;20176;-66
2021/05/15 01:33:36;;;;;;;1.70;1.60;;;;;;;18.52;73.71;96824.84;5045118;28;20196;-65
2021/05/15 01:36:02;;;;;;;1.73;1.50;;;;;;;19.34;74.18;96871.41;5045764;28;20192;-64
2021/05/15 01:38:27;;;;;;;2.10;1.43;;;;;;;17.56;74.05;96565.97;5066983;28;20206;-65
2021/05/15 01:40:53;;;;;;;1.87;1.60;;;;;;;18.52;74.20;96724.75;5067225;28;20218;-65
2021/05/15 01:43:19;;;;;;;1.97;1.70;;;;;;;19.33;74.37;96865.44;5049694;28;20187;-66
2021/05/15 01:45:45;;;;;;;1.23;1.13;;;;;;;19.33;74.03;96873.06;5065459;28;20244;-66
2021/05/15 01:48:17;;;;;;;2.17;1.90;;;;;;;19.34;74.46;96866.31;5065357;28;20180;-65
2021/05/15 01:50:45;;;;;;;1.53;1.43;;;;;;;17.12;74.13;96495.22;5047124;28;20177;-65
2021/05/15 01:53:10;;;;;;;2.03;1.53;;;;;;;19.34;74.51;96871.41;5067133;28;20196;-65
2021/05/15 01:55:36;;;;;;;1.60;1.50;;;;;;;19.34;74.46;96873.94;5062692;28;20266;-64
2021/05/15 01:58:01;;;;;;;1.53;1.43;;;;;;;19.34;74.45;96868.84;5047993;28;20203;-65
2021/05/15 02:00:27;;;;;;;1.90;1.70;;;;;;;18.35;74.31;96691.16;5049528;28;20519;-65
2021/05/15 02:02:53;;;;;;;1.57;1.47;;;;;;;19.21;74.58;96844.69;5063570;28;20234;-65
2021/05/15 02:05:18;;;;;;;1.40;1.30;;;;;;;16.33;74.09;96377.75;5055743;28;20216;-65
2021/05/15 02:07:44;;;;;;;2.33;1.67;;;;;;;17.54;74.08;96604.88;5050385;28;20626;-64
2021/05/15 02:10:10;;;;;;;2.23;1.67;;;;;;;18.63;74.10;96860.78;5034875;28;20184;-65
2021/05/15 02:12:35;;;;;;;2.33;1.47;;;;;;;19.38;74.14;96863.88;5069968;28;20188;-65
2021/05/15 02:15:01;;;;;;;1.70;1.60;;;;;;;19.07;74.21;96806.94;5069323;28;20269;-65
2021/05/15 02:17:26;;;;;;;2.17;1.77;;;;;;;19.39;74.10;96865.59;5052419;28;20196;-65
2021/05/15 02:19:52;;;;;;;1.50;1.40;;;;;;;19.40;74.10;96857.16;5070267;28;20257;-67
2021/05/15 02:22:17;;;;;;;1.87;1.57;;;;;;;19.41;74.29;96860.53;5068990;28;20180;-65
2021/05/15 02:24:42;;;;;;;3.10;1.40;;;;;;;17.17;73.86;96472.53;5069874;28;20222;-65
2021/05/15 02:27:08;;;;;;;1.87;1.50;;;;;;;18.80;73.76;96752.72;5050922;28;20188;-65
2021/05/15 02:29:34;;;;;;;2.03;1.60;;;;;;;19.42;73.92;96858.03;5052261;28;20203;-65
2021/05/15 02:31:59;;;;;;;1.50;1.40;;;;;;;19.45;73.55;96859.81;5070130;28;20251;-65
2021/05/15 02:34:24;;;;;;;1.60;1.50;;;;;;;19.46;73.77;96864.09;5070091;28;20762;-66
2021/05/15 02:36:50;;;;;;;1.60;1.40;;;;;;;15.51;73.27;96299.06;5067701;28;20184;-65
2021/05/15 02:39:15;;;;;;;1.70;1.60;;;;;;;19.47;73.63;96863.25;5033808;28;20681;-65
2021/05/15 02:41:41;;;;;;;1.47;1.37;;;;;;;19.48;73.42;96865.84;5069333;28;20208;-65
2021/05/15 02:44:07;;;;;;;1.50;1.40;;;;;;;19.25;73.37;96825.25;5070000;28;20521;-65
2021/05/15 02:46:32;;;;;;;1.70;1.40;;;;;;;18.06;73.23;96679.31;5049448;28;20562;-65
2021/05/15 02:48:58;;;;;;;1.33;1.23;;;;;;;19.51;73.26;96870.19;5070156;28;20200;-64
2021/05/15 02:51:23;;;;;;;1.40;1.30;;;;;;;19.17;73.32;96811.44;5069764;28;20196;-66
2021/05/15 02:53:49;;;;;;;1.60;1.50;;;;;;;19.51;73.29;96868.47;5069911;28;20184;-65
2021/05/15 02:56:14;;;;;;;1.57;1.47;;;;;;;19.52;73.21;96870.22;5068723;28;20190;-65
2021/05/15 02:58:40;;;;;;;1.50;1.40;;;;;;;19.52;73.12;96867.66;5068605;28;20230;-65
2021/05/15 03:01:05;;;;;;;1.60;1.50;;;;;;;19.53;73.11;96869.38;5069311;28;20511;-65
2021/05/15 03:03:31;;;;;;;1.57;1.47;;;;;;;19.53;73.17;96871.94;5050868;28;20184;-64
2021/05/15 03:05:58;;;;;;;1.50;1.40;;;;;;;18.49;72.84;96699.22;5183327;22;20755;-67
2021/05/15 03:08:24;;;;;;;1.40;1.30;;;;;;;19.52;72.79;96864.25;5045776;28;20406;-67
2021/05/15 03:10:49;;;;;;;1.80;1.70;;;;;;;15.70;72.54;96266.78;5068530;28;20191;-68
2021/05/15 03:13:14;;;;;;;1.63;1.53;;;;;;;18.95;72.84;96760.75;5068675;28;20192;-69
2021/05/15 03:15:40;;;;;;;1.97;1.43;;;;;;;19.38;72.82;96834.97;5054190;28;20541;-67
2021/05/15 03:18:05;;;;;;;1.60;1.50;;;;;;;19.50;72.72;96859.13;5029531;28;20235;-67
2021/05/15 03:20:31;;;;;;;1.30;1.20;;;;;;;19.31;72.43;96825.47;5048271;28;20290;-67
2021/05/15 03:22:56;;;;;;;1.40;1.27;;;;;;;18.30;72.54;96653.72;5011746;28;20662;-67
2021/05/15 03:25:22;;;;;;;1.50;1.40;;;;;;;19.58;72.77;96869.50;5019392;28;20666;-67
2021/05/15 03:27:48;;;;;;;1.20;1.10;;;;;;;16.84;72.41;96457.13;5013171;28;20197;-67
2021/05/15 03:30:14;;;;;;;1.67;1.57;;;;;;;19.59;72.60;96877.19;5030356;28;20565;-67
2021/05/15 03:32:41;;;;;;;1.97;1.30;;;;;;;18.01;72.50;96627.47;5045663;28;20201;-67
2021/05/15 03:35:08;;;;;;;1.50;1.40;;;;;;;18.02;72.40;96598.66;5029931;28;20633;-68
2021/05/15 03:37:33;;;;;;;1.40;1.30;;;;;;;16.41;72.16;96332.34;5047817;28;20196;-67
2021/05/15 03:39:58;;;;;;;1.97;1.40;;;;;;;19.59;72.58;96872.09;5047669;28;20211;-67
2021/05/15 03:42:25;;;;;;;1.30;1.20;;;;;;;19.61;72.49;96874.69;5047156;28;20192;-68
2021/05/15 03:44:51;;;;;;;1.53;1.43;;;;;;;19.43;72.58;96841.06;5047622;28;20224;-68
2021/05/15 03:47:16;;;;;;;1.40;1.30;;;;;;;19.61;72.10;96869.59;5029600;28;20180;-68
2021/05/15 03:49:42;;;;;;;1.60;1.50;;;;;;;19.00;72.18;96764.28;5048175;28;20222;-68
2021/05/15 03:52:07;;;;;;;1.40;1.30;;;;;;;16.52;72.31;96439.19;5029132;28;20184;-68
2021/05/15 03:54:33;;;;;;;1.40;1.30;;;;;;;19.60;72.34;96867.88;5029443;28;20278;-68
2021/05/15 03:56:58;;;;;;;1.50;1.40;;;;;;;19.62;72.06;96868.75;5044733;28;20514;-67
2021/05/15 03:59:24;;;;;;;1.53;1.43;;;;;;;19.62;72.13;96866.22;5047581;28;20207;-68
2021/05/15 04:01:49;;;;;;;1.50;1.40;;;;;;;16.54;72.18;96432.47;5046166;28;20213;-67
2021/05/15 04:04:15;;;;;;;1.27;1.17;;;;;;;19.63;72.33;96867.94;5046506;28;20188;-67
2021/05/15 04:06:40;;;;;;;1.20;1.10;;;;;;;19.24;72.25;96809.09;5047229;28;20242;-67
2021/05/15 04:09:06;;;;;;;1.17;1.17;;;;;;;15.77;71.35;96268.69;5047334;28;20199;-66
2021/05/15 04:11:35;;;;;;;1.43;1.33;;;;;;;19.44;72.06;96832.59;5045341;28;20215;-67
2021/05/15 04:17:29;;;;;;;1.50;1.40;;;;;;;19.64;72.33;96867.13;5030771;28;20204;-67
2021/05/15 04:19:29;;;;;;;1.30;1.20;;;;;;;16.84;71.90;96401.31;5029619;28;20292;-67
2021/05/15 04:21:55;;;;;;;1.40;1.30;;;;;;;18.05;72.22;96632.69;5043560;28;20220;-69
2021/05/15 04:24:24;;;;;;;1.60;1.50;;;;;;;19.53;72.20;96850.69;5029644;28;20208;-66
2021/05/15 04:26:51;;;;;;;1.50;1.40;;;;;;;18.36;71.94;96652.22;5029305;28;20188;-68
2021/05/15 04:29:16;;;;;;;1.50;1.40;;;;;;;19.09;72.24;96773.03;5012217;28;20196;-66
2021/05/15 04:31:42;;;;;;;1.63;1.47;;;;;;;19.31;71.99;96813.59;5029506;28;20668;-67
2021/05/15 04:34:07;;;;;;;1.40;1.30;;;;;;;19.64;72.10;96860.34;5019310;28;20184;-68
2021/05/15 04:36:33;;;;;;;1.57;1.47;;;;;;;19.39;71.97;96822.28;5044492;28;20250;-67
2021/05/15 04:38:58;;;;;;;1.50;1.40;;;;;;;19.65;72.09;96866.28;5028970;28;20642;-67
2021/05/15 04:41:24;;;;;;;1.50;1.40;;;;;;;14.88;71.81;96052.34;5047082;28;20283;-68
2021/05/15 04:43:49;;;;;;;2.57;1.60;;;;;;;18.78;72.07;96721.25;5012308;28;20204;-67
2021/05/15 04:46:14;;;;;;;1.40;1.30;;;;;;;18.94;72.18;96770.06;5010148;28;20516;-67
2021/05/15 04:48:43;;;;;;;1.47;1.37;;;;;;;15.79;71.93;96324.44;5029068;28;20192;-67
2021/05/15 04:51:09;;;;;;;1.40;1.30;;;;;;;19.54;71.96;96867.72;5046551;28;20717;-67
2021/05/15 04:53:34;;;;;;;1.60;1.40;;;;;;;19.27;72.07;96818.56;5045461;28;20191;-68
2021/05/15 04:56:00;;;;;;;1.93;1.60;;;;;;;19.62;72.12;96886.59;5029011;28;20228;-67
2021/05/15 04:58:26;;;;;;;1.37;1.27;;;;;;;19.48;71.82;96910.88;5045744;28;20185;-68
2021/05/15 05:00:51;;;;;;;1.20;1.10;;;;;;;14.41;71.50;96067.63;5026551;28;20208;-67
2021/05/15 05:03:17;;;;;;;1.40;1.30;;;;;;;18.58;71.94;96750.34;5045686;28;20558;-67
2021/05/15 05:05:42;;;;;;;1.40;1.30;;;;;;;18.40;72.17;96870.25;5046666;28;20220;-67
2021/05/15 05:08:08;;;;;;;1.40;1.30;;;;;;;19.05;71.92;96788.19;5028316;28;20684;-69
2021/05/15 05:10:33;;;;;;;1.40;1.30;;;;;;;19.50;72.00;96859.13;5028173;28;20196;-67
2021/05/15 05:13:05;;;;;;;1.40;1.30;;;;;;;16.49;71.76;96363.03;5015219;28;20196;-69
2021/05/15 05:15:31;;;;;;;1.73;1.43;;;;;;;18.20;72.05;96747.53;5044456;28;20244;-66
2021/05/15 05:17:56;;;;;;;1.30;1.20;;;;;;;19.66;71.80;96893.53;5028471;28;20191;-67
2021/05/15 05:20:22;;;;;;;1.50;1.40;;;;;;;16.58;71.82;96368.38;5027782;28;20308;-67
2021/05/15 05:22:47;;;;;;;1.27;1.17;;;;;;;19.64;71.88;96883.28;5046211;28;20184;-67
2021/05/15 05:25:14;;;;;;;1.67;1.43;;;;;;;18.47;71.94;96749.22;5014363;28;20709;-68
2021/05/15 05:27:45;;;;;;;1.30;1.20;;;;;;;18.44;71.94;96672.81;5027751;28;20641;-66
2021/05/15 05:30:11;;;;;;;1.30;1.20;;;;;;;16.37;71.73;96341.53;5029264;28;20189;-66
2021/05/15 05:32:37;;;;;;;1.40;1.30;;;;;;;19.65;71.69;96890.09;5044109;28;20192;-67
2021/05/15 05:35:02;;;;;;;1.00;1.00;;;;;;;19.02;71.82;96775.38;5029889;28;20266;-67
2021/05/15 05:37:28;;;;;;;1.30;1.20;;;;;;;19.67;71.74;96885.03;5027606;28;20203;-67
2021/05/15 05:39:54;;;;;;;1.10;1.10;;;;;;;19.15;72.08;96880.16;5028306;28;20681;-67
2021/05/15 05:42:20;;;;;;;1.17;1.17;;;;;;;17.00;71.73;96438.16;5049972;28;20221;-68
2021/05/15 05:44:45;;;;;;;1.30;1.20;;;;;;;19.30;71.70;96819.50;5031546;28;20212;-67
2021/05/15 05:47:12;;;;;;;1.77;1.30;;;;;;;16.82;71.71;96448.63;5034998;28;20228;-67
2021/05/15 05:49:37;;;;;;;1.37;1.27;;;;;;;19.15;71.70;96867.44;5049866;28;20576;-66
2021/05/15 05:52:03;;;;;;;1.40;1.30;;;;;;;19.36;71.78;96834.94;5021832;28;20247;-66
2021/05/15 05:54:28;;;;;;;1.20;1.10;;;;;;;19.70;71.80;96898.75;5046351;28;20213;-67
2021/05/15 05:56:54;;;;;;;1.63;1.30;;;;;;;19.71;71.62;96895.34;5048185;28;20204;-67
2021/05/15 05:59:19;;;;;;;1.37;1.27;;;;;;;18.94;71.74;96772.63;5036954;28;20197;-67
2021/05/15 06:01:45;;;;;;;1.77;1.40;;;;;;;19.39;71.73;96844.38;4998030;28;20213;-69
2021/05/15 06:04:10;;;;;;;1.20;1.20;;;;;;;19.01;72.19;96866.16;5031813;28;20197;-69
2021/05/15 06:06:36;;;;;;;1.73;1.50;;;;;;;19.72;71.66;96896.22;5036920;28;20688;-68
2021/05/15 06:09:03;;;;;;;1.20;1.20;;;;;;;19.42;71.52;96850.38;5016750;28;20201;-69
2021/05/15 06:11:29;;;;;;;1.07;1.03;;;;;;;19.72;71.31;96896.22;5016632;28;20185;-68
2021/05/15 06:13:54;;;;;;;1.30;1.20;;;;;;;19.72;71.48;96902.16;5036923;28;20712;-69
2021/05/15 06:16:20;;;;;;;1.30;1.20;;;;;;;19.39;71.57;96847.75;5030798;28;20220;-68
2021/05/15 06:18:45;;;;;;;1.30;1.20;;;;;;;18.41;71.57;96676.09;5017220;28;20266;-66
2021/05/15 06:21:11;;;;;;;1.40;1.30;;;;;;;19.70;71.35;96896.19;4997477;28;20259;-69
2021/05/15 06:23:36;;;;;;;1.10;1.10;;;;;;;19.57;71.40;96872.88;5033796;28;21538;-68
2021/05/15 06:26:07;;;;;;;1.40;1.30;;;;;;;19.29;71.46;96825.41;5017016;28;20205;-67
2021/05/15 06:28:33;;;;;;;1.40;1.30;;;;;;;19.41;71.54;96840.16;4987719;28;20637;-68
2021/05/15 06:30:58;;;;;;;1.50;1.40;;;;;;;19.69;71.60;96891.91;5034143;28;20190;-67
2021/05/15 06:33:24;;;;;;;1.53;1.40;;;;;;;19.63;71.32;96873.88;5032452;28;20178;-67
2021/05/15 06:35:49;;;;;;;1.20;1.10;;;;;;;19.20;71.37;96807.31;5035052;28;20209;-68
2021/05/15 06:38:14;;;;;;;1.20;1.10;;;;;;;19.68;71.42;96896.97;4999110;28;20193;-67
2021/05/15 06:40:40;;;;;;;1.37;1.27;;;;;;;19.67;71.30;96893.56;5015356;28;20997;-67
2021/05/15 06:43:05;;;;;;;1.17;1.17;;;;;;;19.67;71.23;96892.69;4998660;28;20215;-67
2021/05/15 06:45:31;;;;;;;1.37;1.27;;;;;;;19.58;71.27;96878.03;5032142;28;20208;-68
2021/05/15 06:47:57;;;;;;;1.20;1.20;;;;;;;19.28;71.43;96833.00;5034598;28;20207;-68
2021/05/15 06:50:22;;;;;;;1.83;1.20;;;;;;;19.65;71.38;96923.25;4999071;28;20763;-67
2021/05/15 06:52:48;;;;;;;1.10;1.10;;;;;;;19.65;71.31;96897.75;5014537;28;20611;-69
2021/05/15 06:55:13;;;;;;;1.30;1.20;;;;;;;18.30;71.37;96661.34;5013828;28;20220;-67
2021/05/15 06:57:39;;;;;;;1.30;1.20;;;;;;;19.17;71.53;96819.09;5031531;28;20186;-67
2021/05/15 07:00:06;;;;;;;1.63;1.13;;;;;;;19.62;71.52;96902.75;5004521;28;20590;-68
2021/05/15 07:02:31;;;;;;;1.40;1.30;;;;;;;19.46;71.49;96869.19;5015787;28;20201;-68
2021/05/15 07:04:56;;;;;;;1.13;1.13;;;;;;;18.72;71.55;96738.91;5033433;28;20238;-68
2021/05/15 07:07:22;;;;;;;1.30;1.20;;;;;;;19.60;71.53;96896.75;5029002;28;20193;-67
2021/05/15 07:09:50;;;;;;;1.40;1.30;;;;;;;19.46;71.65;96871.72;5034263;28;20197;-67
2021/05/15 07:12:16;;;;;;;1.20;1.10;;;;;;;18.29;71.79;96705.41;5015197;28;20185;-68
2021/05/15 07:14:41;;;;;;;1.57;1.40;;;;;;;19.58;71.54;96889.91;4999123;28;20204;-68
2021/05/15 07:17:06;;;;;;;1.13;1.13;;;;;;;18.46;71.64;96694.03;5011055;28;20204;-68
2021/05/15 07:19:32;;;;;;;1.57;1.23;;;;;;;19.56;71.70;96882.22;5012426;28;20459;-67
2021/05/15 07:21:57;;;;;;;1.20;1.10;;;;;;;19.54;71.71;96883.00;5032014;28;20229;-68
2021/05/15 07:24:23;;;;;;;1.77;1.20;;;;;;;19.17;71.57;96814.88;5013430;28;20575;-67
2021/05/15 07:26:48;;;;;;;1.07;1.07;;;;;;;17.86;71.69;96588.91;5033787;28;20193;-67
2021/05/15 07:29:14;;;;;;;1.40;1.30;;;;;;;19.52;71.82;96872.75;5016778;28;20560;-69
2021/05/15 07:31:39;;;;;;;1.30;1.20;;;;;;;19.51;71.77;96860.81;5035359;28;20654;-66
2021/05/15 07:34:05;;;;;;;1.77;1.40;;;;;;;19.54;71.88;96870.25;5013595;28;20189;-67
2021/05/15 07:36:30;;;;;;;1.07;1.07;;;;;;;19.45;71.96;96855.56;5029527;28;20200;-66
2021/05/15 07:38:56;;;;;;;1.33;1.23;;;;;;;19.29;71.83;96827.97;5017194;28;20192;-68
2021/05/15 07:41:22;;;;;;;1.43;1.33;;;;;;;18.72;72.13;96731.25;5033284;28;20209;-67
2021/05/15 07:43:48;;;;;;;1.17;1.10;;;;;;;18.28;71.69;96653.66;5013828;28;20186;-67
2021/05/15 07:46:15;;;;;;;1.40;1.30;;;;;;;19.43;71.93;96849.59;5014308;28;20705;-69
2021/05/15 07:48:42;;;;;;;1.10;1.10;;;;;;;19.49;71.52;96862.50;5028569;28;20194;-67
2021/05/15 07:51:09;;;;;;;1.30;1.20;;;;;;;18.78;71.83;96737.41;5031893;28;20260;-67
2021/05/15 07:53:34;;;;;;;1.30;1.20;;;;;;;19.46;71.98;96856.44;5000048;28;20694;-68
2021/05/15 07:56:00;;;;;;;1.40;1.30;;;;;;;19.47;71.99;96861.56;5017468;28;21277;-68
2021/05/15 07:58:25;;;;;;;1.40;1.30;;;;;;;19.46;71.84;96854.75;5015376;28;20277;-67
2021/05/15 08:00:51;;;;;;;1.27;1.17;;;;;;;19.00;71.98;96777.88;5014241;28;20224;-69
2021/05/15 08:03:16;;;;;;;1.20;1.10;;;;;;;19.44;72.05;96853.84;5030824;28;20192;-67
2021/05/15 08:05:42;;;;;;;1.30;1.20;;;;;;;19.43;72.11;96857.22;5031692;28;20229;-67
2021/05/15 08:08:07;;;;;;;1.50;1.40;;;;;;;19.44;71.97;96853.84;5013811;28;20177;-68
2021/05/15 08:10:33;;;;;;;1.20;1.10;;;;;;;19.43;72.26;96849.59;4992896;28;20556;-67
2021/05/15 08:12:58;;;;;;;1.53;1.23;;;;;;;19.43;72.10;96849.59;5015482;28;20207;-68
2021/05/15 08:15:24;;;;;;;1.10;1.10;;;;;;;19.43;72.17;96849.59;5030393;28;20243;-68
2021/05/15 08:17:50;;;;;;;1.20;1.20;;;;;;;18.94;72.36;96756.47;5032214;28;20192;-69
2021/05/15 08:20:15;;;;;;;1.30;1.20;;;;;;;19.43;72.16;96847.03;5005517;28;20185;-68
2021/05/15 08:22:41;;;;;;;1.80;1.37;;;;;;;19.43;72.51;96843.63;5033529;28;20192;-66
2021/05/15 08:25:07;;;;;;;1.10;1.10;;;;;;;19.13;72.47;96785.00;5034024;28;20266;-67
2021/05/15 08:27:36;;;;;;;1.30;1.20;;;;;;;19.11;72.64;96778.16;5007137;28;20734;-67
2021/05/15 08:30:02;;;;;;;1.03;1.03;;;;;;;19.44;72.63;96830.03;4987608;28;20192;-67
2021/05/15 08:32:27;;;;;;;1.30;1.20;;;;;;;19.43;72.63;96831.75;5031848;28;21019;-67
2021/05/15 08:34:53;;;;;;;1.30;1.20;;;;;;;19.45;72.82;96829.25;5013587;28;20206;-68
2021/05/15 08:37:18;;;;;;;1.30;1.20;;;;;;;18.40;72.65;96648.97;5039458;28;20215;-68
2021/05/15 08:39:44;;;;;;;1.57;1.30;;;;;;;19.41;72.96;96822.31;5026302;28;20189;-67
2021/05/15 08:42:09;;;;;;;1.90;1.17;;;;;;;19.33;72.54;96824.66;5026711;28;20212;-67
2021/05/15 08:44:38;;;;;;;1.50;1.40;;;;;;;19.45;72.54;96829.25;5012236;28;20737;-68
2021/05/15 08:47:04;;;;;;;1.30;1.20;;;;;;;19.45;71.74;96831.78;5043605;28;20616;-68
2021/05/15 08:49:29;;;;;;;1.30;1.20;;;;;;;19.46;71.65;96846.25;5025439;28;20188;-68
2021/05/15 08:51:55;;;;;;;1.40;1.30;;;;;;;19.45;71.50;96830.09;5007782;28;20571;-68
2021/05/15 08:54:23;;;;;;;1.10;1.00;;;;;;;19.42;71.86;96826.63;5026644;28;20632;-67
2021/05/15 08:56:50;;;;;;;1.17;1.13;;;;;;;19.32;71.85;96801.69;5027008;28;20904;-68
2021/05/15 08:59:16;;;;;;;1.60;1.40;;;;;;;18.95;72.03;96733.59;5025897;28;20207;-68
2021/05/15 09:01:45;;;;;;;1.33;1.23;;;;;;;19.47;72.11;96825.03;5045113;28;20872;-68
2021/05/15 09:04:10;;;;;;;1.60;1.20;;;;;;;19.43;72.13;96816.47;5027600;28;20981;-66
2021/05/15 09:06:41;;;;;;;1.70;1.40;;;;;;;19.47;72.06;96814.84;5025265;28;20207;-68
2021/05/15 09:09:07;;;;;;;1.60;1.20;;;;;;;19.08;71.94;96745.84;5046370;28;20213;-67
2021/05/15 09:11:34;;;;;;;1.37;1.27;;;;;;;18.47;71.73;96642.38;5019972;28;20228;-67
2021/05/15 09:14:01;;;;;;;2.00;1.40;;;;;;;19.47;72.04;96808.06;5027863;28;20667;-68
2021/05/15 09:16:29;;;;;;;1.40;1.30;;;;;;;19.49;72.05;96806.44;5044621;28;20258;-68
2021/05/15 09:19:04;;;;;;;1.63;1.50;;;;;;;19.50;72.03;96812.38;5045956;28;20201;-68
2021/05/15 09:21:31;;;;;;;2.30;1.50;;;;;;;19.49;72.11;96813.19;5046197;28;20298;-67
2021/05/15 09:23:58;;;;;;;1.40;1.30;;;;;;;19.46;71.74;96806.34;5046233;28;20704;-67
2021/05/15 09:26:25;;;;;;;6.27;1.70;;;;;;;19.49;71.30;96810.66;5027816;28;20870;-65
2021/05/15 09:28:55;;;;;;;2.10;1.50;;;;;;;19.49;70.58;96808.09;5044243;28;20204;-67
2021/05/15 09:31:38;;;;;;;2.10;1.47;;;;;;;19.49;70.38;96796.22;5038797;28;20780;-66
2021/05/15 09:34:05;;;;;;;1.40;1.30;;;;;;;19.37;70.70;96779.75;5041384;28;20235;-68
2021/05/15 09:36:43;;;;;;;3.47;1.60;;;;;;;19.51;70.99;96794.56;5040931;28;20291;-68
2021/05/15 09:39:20;;;;;;;1.90;1.43;;;;;;;19.52;71.12;96785.25;5045247;28;20200;-67
2021/05/15 09:41:58;;;;;;;2.83;1.80;;;;;;;19.53;71.28;96789.50;5044067;28;20329;-68
2021/05/15 09:44:28;;;;;;;4.63;1.80;;;;;;;19.38;71.20;96750.91;5044273;28;20285;-67
2021/05/15 09:46:56;;;;;;;2.90;1.70;;;;;;;19.53;71.25;96777.63;5027411;28;20267;-67
2021/05/15 09:49:24;;;;;;;5.17;1.50;;;;;;;19.47;71.18;96759.66;5045559;28;20232;-66
2021/05/15 09:51:54;;;;;;;4.90;2.00;;;;;;;19.54;71.28;96776.81;5044078;28;20193;-67
2021/05/15 09:54:24;;;;;;;4.47;1.80;;;;;;;19.55;71.30;96772.59;5045601;28;20260;-67
2021/05/15 09:57:07;;;;;;;2.23;1.43;;;;;;;19.20;71.27;96707.97;5045041;28;20231;-67
2021/05/15 09:59:37;;;;;;;1.73;1.47;;;;;;;19.53;71.02;96757.25;5024426;28;20243;-67
2021/05/15 10:02:08;;;;;;;3.07;1.70;;;;;;;19.53;70.93;96754.72;5038582;28;20718;-67
2021/05/15 10:04:50;;;;;;;3.27;1.80;;;;;;;19.35;70.93;96722.81;5023866;28;20232;-67
2021/05/15 10:07:25;;;;;;;1.50;1.40;;;;;;;19.52;70.96;96757.22;5033450;28;20240;-67
2021/05/15 10:09:52;;;;;;;2.23;1.57;;;;;;;19.52;70.86;96741.94;5014715;28;20209;-68
2021/05/15 10:12:19;;;;;;;2.93;1.60;;;;;;;19.39;70.94;96722.06;5021401;28;20204;-67
2021/05/15 10:14:46;;;;;;;2.03;1.40;;;;;;;19.17;70.76;96684.97;5022862;28;20297;-66
2021/05/15 10:17:12;;;;;;;2.63;1.70;;;;;;;19.14;70.76;96684.88;4993448;28;20221;-67
2021/05/15 10:19:39;;;;;;;3.00;1.70;;;;;;;19.50;70.55;96736.78;5029341;28;20793;-67
2021/05/15 10:22:06;;;;;;;1.47;1.33;;;;;;;19.51;70.80;96735.13;5029297;28;20275;-67
2021/05/15 10:24:34;;;;;;;2.47;1.70;;;;;;;18.86;70.90;96623.06;5034022;28;20324;-67
2021/05/15 10:27:04;;;;;;;1.47;1.27;;;;;;;19.53;70.81;96733.44;4996444;28;20262;-64
2021/05/15 10:29:40;;;;;;;2.60;1.73;;;;;;;19.25;70.71;96680.94;5037094;28;20219;-67
2021/05/15 10:32:22;;;;;;;6.40;1.90;;;;;;;19.54;70.79;96719.91;5014430;28;20232;-65
2021/05/15 10:35:00;;;;;;;2.40;1.50;;;;;;;19.54;70.58;96725.84;5035380;28;20274;-67
2021/05/15 10:37:29;;;;;;;3.83;1.40;;;;;;;19.55;70.54;96712.28;5018613;28;20274;-67
2021/05/15 10:39:55;;;;;;;2.03;1.50;;;;;;;19.55;70.85;96703.78;5019093;28;20278;-65
2021/05/15 10:42:29;;;;;;;1.57;1.47;;;;;;;19.55;70.47;96706.31;5033081;28;20274;-68
2021/05/15 10:44:56;;;;;;;1.60;1.50;;;;;;;19.50;70.47;96683.28;5019973;28;20278;-67
2021/05/15 10:47:23;;;;;;;2.50;1.60;;;;;;;18.98;70.59;96631.00;5032738;28;20208;-67
2021/05/15 10:49:49;;;;;;;2.57;1.70;;;;;;;19.53;70.57;96691.00;5006493;28;20297;-67
2021/05/15 10:52:17;;;;;;;1.50;1.40;;;;;;;19.54;70.52;96681.69;5028639;28;20620;-67
2021/05/15 10:54:50;;;;;;;2.50;1.40;;;;;;;19.47;69.63;96665.38;5019576;28;20783;-67
2021/05/15 10:57:22;;;;;;;2.03;1.53;;;;;;;19.52;68.70;96670.56;5029988;28;20290;-66
2021/05/15 11:00:03;;;;;;;3.53;1.50;;;;;;;15.91;68.33;96157.66;5019519;28;20217;-65
2021/05/15 11:02:33;;;;;;;1.40;1.30;;;;;;;18.20;68.99;96436.44;5033164;28;20337;-67
2021/05/15 11:05:10;;;;;;;1.67;1.40;;;;;;;19.51;69.26;96661.22;5015180;28;20235;-67
2021/05/15 11:07:40;;;;;;;4.00;1.33;;;;;;;19.39;69.19;96638.00;5033689;28;20698;-67
2021/05/15 11:10:16;;;;;;;1.40;1.30;;;;;;;19.51;69.32;96656.13;5016373;28;20241;-67
2021/05/15 11:12:44;;;;;;;1.37;1.27;;;;;;;19.47;69.48;96646.66;5018573;28;20781;-67
2021/05/15 11:15:12;;;;;;;3.53;1.40;;;;;;;19.47;69.54;96647.53;5015198;28;20764;-65
2021/05/15 11:17:39;;;;;;;1.33;1.23;;;;;;;19.50;69.67;96654.38;5037384;28;20212;-67
2021/05/15 11:20:13;;;;;;;1.60;1.50;;;;;;;18.69;69.43;96510.66;4999632;28;20232;-66
2021/05/15 11:22:53;;;;;;;1.40;1.30;;;;;;;19.50;69.53;96641.63;5003955;28;20667;-67
2021/05/15 11:25:21;;;;;;;1.67;1.40;;;;;;;19.49;69.41;96635.69;5030301;28;20286;-67
2021/05/15 11:27:58;;;;;;;1.20;1.10;;;;;;;19.49;69.56;96628.06;5037153;28;20204;-67
2021/05/15 11:30:32;;;;;;;1.87;1.40;;;;;;;19.10;69.38;96550.66;5030881;28;20216;-67
2021/05/15 11:33:07;;;;;;;3.17;1.37;;;;;;;19.52;69.44;96623.03;5035044;28;20204;-67
2021/05/15 11:35:44;;;;;;;2.07;1.47;;;;;;;19.49;69.23;96617.88;5037357;28;20224;-68
2021/05/15 11:38:21;;;;;;;1.83;1.50;;;;;;;19.49;69.32;96620.41;5032565;28;20201;-68